sensor_id;sensor_type;location;lat;lon;timestamp;P1;durP1;ratioP1;P2;durP2;ratioP2
27979;SDS011;15315;50.836;4.430;2023-02-17T00:09:46;8.20;;;6.35;;
27979;SDS011;15315;50.836;4.430;2023-02-17T00:19:46;9.25;;;6.55;;
27979;SDS011;15315;50.836;4.430;2023-02-17T00:29:47;7.60;;;6.73;;
27979;SDS011;15315;50.836;4.430;2023-02-17T00:39:47;7.97;;;6.50;;
27979;SDS011;15315;50.836;4.430;2023-02-17T00:49:48;9.43;;;6.18;;
27979;SDS011;15315;50.836;4.430;2023-02-17T00:59:48;7.00;;;6.28;;
27979;SDS011;15315;50.836;4.430;2023-02-17T01:09:48;6.85;;;5.72;;
27979;SDS011;15315;50.836;4.430;2023-02-17T01:19:49;5.55;;;4.57;;
27979;SDS011;15315;50.836;4.430;2023-02-17T01:29:49;6.40;;;5.03;;
27979;SDS011;15315;50.836;4.430;2023-02-17T01:39:49;8.13;;;5.22;;
27979;SDS011;15315;50.836;4.430;2023-02-17T01:49:50;9.48;;;6.25;;
27979;SDS011;15315;50.836;4.430;2023-02-17T01:59:50;10.17;;;5.50;;
27979;SDS011;15315;50.836;4.430;2023-02-17T02:09:53;12.27;;;4.90;;
27979;SDS011;15315;50.836;4.430;2023-02-17T02:20:02;9.48;;;5.47;;
27979;SDS011;15315;50.836;4.430;2023-02-17T02:50:38;10.90;;;5.95;;
27979;SDS011;15315;50.836;4.430;2023-02-17T03:00:42;12.57;;;7.40;;
27979;SDS011;15315;50.836;4.430;2023-02-17T03:10:47;10.75;;;6.63;;
27979;SDS011;15315;50.836;4.430;2023-02-17T03:20:56;10.45;;;6.85;;
27979;SDS011;15315;50.836;4.430;2023-02-17T03:31:09;8.55;;;5.93;;
27979;SDS011;15315;50.836;4.430;2023-02-17T03:41:10;8.93;;;5.55;;
27979;SDS011;15315;50.836;4.430;2023-02-17T03:51:18;7.47;;;5.45;;
27979;SDS011;15315;50.836;4.430;2023-02-17T04:01:20;10.73;;;5.43;;
27979;SDS011;15315;50.836;4.430;2023-02-17T04:11:21;12.82;;;5.20;;
27979;SDS011;15315;50.836;4.430;2023-02-17T04:21:21;10.57;;;5.32;;
27979;SDS011;15315;50.836;4.430;2023-02-17T04:31:22;8.85;;;5.28;;
27979;SDS011;15315;50.836;4.430;2023-02-17T04:41:24;8.63;;;4.97;;
27979;SDS011;15315;50.836;4.430;2023-02-17T04:51:25;8.40;;;5.05;;
27979;SDS011;15315;50.836;4.430;2023-02-17T05:01:25;8.45;;;5.85;;
27979;SDS011;15315;50.836;4.430;2023-02-17T05:11:26;9.57;;;5.45;;
27979;SDS011;15315;50.836;4.430;2023-02-17T05:21:26;7.65;;;5.30;;
27979;SDS011;15315;50.836;4.430;2023-02-17T05:31:26;9.63;;;5.53;;
27979;SDS011;15315;50.836;4.430;2023-02-17T05:41:27;8.93;;;5.32;;
27979;SDS011;15315;50.836;4.430;2023-02-17T05:51:27;11.87;;;6.40;;
27979;SDS011;15315;50.836;4.430;2023-02-17T06:01:28;11.52;;;7.80;;
27979;SDS011;15315;50.836;4.430;2023-02-17T06:11:28;10.38;;;8.00;;
27979;SDS011;15315;50.836;4.430;2023-02-17T06:21:29;11.45;;;8.18;;
27979;SDS011;15315;50.836;4.430;2023-02-17T06:31:29;16.00;;;8.75;;
27979;SDS011;15315;50.836;4.430;2023-02-17T06:41:29;12.30;;;8.00;;
27979;SDS011;15315;50.836;4.430;2023-02-17T06:51:30;14.60;;;8.27;;
27979;SDS011;15315;50.836;4.430;2023-02-17T07:01:31;12.70;;;8.90;;
27979;SDS011;15315;50.836;4.430;2023-02-17T07:11:31;12.35;;;8.50;;
27979;SDS011;15315;50.836;4.430;2023-02-17T07:21:31;12.63;;;8.50;;
27979;SDS011;15315;50.836;4.430;2023-02-17T07:31:32;11.43;;;8.57;;
27979;SDS011;15315;50.836;4.430;2023-02-17T07:41:33;11.73;;;7.93;;
27979;SDS011;15315;50.836;4.430;2023-02-17T07:51:34;14.65;;;8.23;;
27979;SDS011;15315;50.836;4.430;2023-02-17T08:01:34;11.73;;;7.80;;
27979;SDS011;15315;50.836;4.430;2023-02-17T08:11:35;11.48;;;7.22;;
27979;SDS011;15315;50.836;4.430;2023-02-17T08:21:55;9.93;;;6.60;;
27979;SDS011;15315;50.836;4.430;2023-02-17T08:31:55;9.15;;;6.60;;
27979;SDS011;15315;50.836;4.430;2023-02-17T08:41:56;10.05;;;6.00;;
27979;SDS011;15315;50.836;4.430;2023-02-17T08:51:56;7.05;;;5.30;;
27979;SDS011;15315;50.836;4.430;2023-02-17T09:01:57;8.63;;;5.10;;
27979;SDS011;15315;50.836;4.430;2023-02-17T09:11:57;6.13;;;4.07;;
27979;SDS011;15315;50.836;4.430;2023-02-17T09:21:58;4.43;;;2.72;;
27979;SDS011;15315;50.836;4.430;2023-02-17T09:31:58;3.30;;;2.42;;
27979;SDS011;15315;50.836;4.430;2023-02-17T09:41:59;3.17;;;2.28;;
27979;SDS011;15315;50.836;4.430;2023-02-17T10:02:26;1.73;;;1.60;;
27979;SDS011;15315;50.836;4.430;2023-02-17T10:12:36;2.75;;;1.60;;
27979;SDS011;15315;50.836;4.430;2023-02-17T10:22:41;5.82;;;1.52;;
27979;SDS011;15315;50.836;4.430;2023-02-17T10:33:05;3.90;;;1.88;;
27979;SDS011;15315;50.836;4.430;2023-02-17T10:43:21;3.20;;;1.80;;
27979;SDS011;15315;50.836;4.430;2023-02-17T10:53:30;4.75;;;2.05;;
27979;SDS011;15315;50.836;4.430;2023-02-17T11:03:33;3.47;;;2.22;;
27979;SDS011;15315;50.836;4.430;2023-02-17T11:13:37;2.25;;;1.65;;
27979;SDS011;15315;50.836;4.430;2023-02-17T11:23:47;5.38;;;1.75;;
27979;SDS011;15315;50.836;4.430;2023-02-17T11:33:54;8.05;;;2.13;;
27979;SDS011;15315;50.836;4.430;2023-02-17T11:43:55;4.72;;;1.90;;
27979;SDS011;15315;50.836;4.430;2023-02-17T12:04:31;5.40;;;1.52;;
27979;SDS011;15315;50.836;4.430;2023-02-17T12:35:24;5.35;;;0.85;;
27979;SDS011;15315;50.836;4.430;2023-02-17T12:45:36;17.65;;;1.25;;
27979;SDS011;15315;50.836;4.430;2023-02-17T12:55:44;10.98;;;1.20;;
27979;SDS011;15315;50.836;4.430;2023-02-17T13:16:11;8.25;;;1.23;;
27979;SDS011;15315;50.836;4.430;2023-02-17T13:26:14;1.85;;;0.73;;
27979;SDS011;15315;50.836;4.430;2023-02-17T13:46:26;8.05;;;1.35;;
27979;SDS011;15315;50.836;4.430;2023-02-17T13:56:29;7.65;;;1.10;;
27979;SDS011;15315;50.836;4.430;2023-02-17T14:06:34;2.55;;;1.23;;
27979;SDS011;15315;50.836;4.430;2023-02-17T14:16:37;12.70;;;1.90;;
27979;SDS011;15315;50.836;4.430;2023-02-17T14:26:43;2.78;;;1.23;;
27979;SDS011;15315;50.836;4.430;2023-02-17T14:36:47;4.95;;;1.55;;
27979;SDS011;15315;50.836;4.430;2023-02-17T14:46:47;4.97;;;1.88;;
27979;SDS011;15315;50.836;4.430;2023-02-17T15:07:08;4.45;;;2.00;;
27979;SDS011;15315;50.836;4.430;2023-02-17T15:17:12;3.20;;;1.70;;
27979;SDS011;15315;50.836;4.430;2023-02-17T15:27:13;3.92;;;1.35;;
27979;SDS011;15315;50.836;4.430;2023-02-17T15:37:14;6.55;;;2.15;;
27979;SDS011;15315;50.836;4.430;2023-02-17T15:47:16;3.88;;;2.20;;
27979;SDS011;15315;50.836;4.430;2023-02-17T15:57:19;3.97;;;3.13;;
27979;SDS011;15315;50.836;4.430;2023-02-17T16:07:22;4.88;;;2.55;;
27979;SDS011;15315;50.836;4.430;2023-02-17T16:17:22;6.32;;;2.00;;
27979;SDS011;15315;50.836;4.430;2023-02-17T16:27:24;4.07;;;2.30;;
27979;SDS011;15315;50.836;4.430;2023-02-17T16:37:25;5.07;;;2.63;;
27979;SDS011;15315;50.836;4.430;2023-02-17T16:47:25;6.10;;;3.10;;
27979;SDS011;15315;50.836;4.430;2023-02-17T16:57:28;6.47;;;3.80;;
27979;SDS011;15315;50.836;4.430;2023-02-17T17:07:30;7.57;;;3.05;;
27979;SDS011;15315;50.836;4.430;2023-02-17T17:17:31;5.82;;;3.42;;
27979;SDS011;15315;50.836;4.430;2023-02-17T17:27:39;7.93;;;3.88;;
27979;SDS011;15315;50.836;4.430;2023-02-17T17:37:40;4.47;;;3.78;;
27979;SDS011;15315;50.836;4.430;2023-02-17T17:47:41;8.48;;;4.07;;
27979;SDS011;15315;50.836;4.430;2023-02-17T17:57:42;9.05;;;4.18;;
27979;SDS011;15315;50.836;4.430;2023-02-17T18:07:44;6.28;;;4.18;;
27979;SDS011;15315;50.836;4.430;2023-02-17T18:17:47;5.03;;;3.87;;
27979;SDS011;15315;50.836;4.430;2023-02-17T18:27:48;6.27;;;3.57;;
27979;SDS011;15315;50.836;4.430;2023-02-17T18:37:49;7.80;;;4.13;;
27979;SDS011;15315;50.836;4.430;2023-02-17T18:47:49;7.30;;;4.27;;
27979;SDS011;15315;50.836;4.430;2023-02-17T18:57:50;5.40;;;4.35;;
27979;SDS011;15315;50.836;4.430;2023-02-17T19:07:50;5.50;;;4.22;;
27979;SDS011;15315;50.836;4.430;2023-02-17T19:17:54;8.25;;;4.65;;
27979;SDS011;15315;50.836;4.430;2023-02-17T19:27:55;7.78;;;6.13;;
27979;SDS011;15315;50.836;4.430;2023-02-17T19:37:56;13.77;;;9.50;;
27979;SDS011;15315;50.836;4.430;2023-02-17T19:47:56;13.82;;;10.52;;
27979;SDS011;15315;50.836;4.430;2023-02-17T19:57:57;12.70;;;11.10;;
27979;SDS011;15315;50.836;4.430;2023-02-17T20:07:57;14.82;;;11.52;;
27979;SDS011;15315;50.836;4.430;2023-02-17T20:17:59;13.93;;;10.50;;
27979;SDS011;15315;50.836;4.430;2023-02-17T20:28:00;12.48;;;9.90;;
27979;SDS011;15315;50.836;4.430;2023-02-17T20:38:00;13.30;;;10.07;;
27979;SDS011;15315;50.836;4.430;2023-02-17T20:48:00;13.70;;;9.82;;
27979;SDS011;15315;50.836;4.430;2023-02-17T20:58:01;14.20;;;10.25;;
27979;SDS011;15315;50.836;4.430;2023-02-17T21:08:02;15.40;;;10.43;;
27979;SDS011;15315;50.836;4.430;2023-02-17T21:18:03;16.60;;;12.15;;
27979;SDS011;15315;50.836;4.430;2023-02-17T21:28:04;18.20;;;12.23;;
27979;SDS011;15315;50.836;4.430;2023-02-17T21:38:05;18.48;;;12.30;;
27979;SDS011;15315;50.836;4.430;2023-02-17T21:48:05;18.63;;;14.05;;
27979;SDS011;15315;50.836;4.430;2023-02-17T21:58:06;19.20;;;14.57;;
27979;SDS011;15315;50.836;4.430;2023-02-17T22:08:07;20.48;;;13.70;;
27979;SDS011;15315;50.836;4.430;2023-02-17T22:18:08;18.85;;;14.63;;
27979;SDS011;15315;50.836;4.430;2023-02-17T22:28:08;21.55;;;14.68;;
27979;SDS011;15315;50.836;4.430;2023-02-17T22:38:09;23.63;;;16.75;;
27979;SDS011;15315;50.836;4.430;2023-02-17T22:48:10;21.30;;;15.32;;
27979;SDS011;15315;50.836;4.430;2023-02-17T22:58:10;26.83;;;17.23;;
27979;SDS011;15315;50.836;4.430;2023-02-17T23:08:11;30.00;;;16.70;;
27979;SDS011;15315;50.836;4.430;2023-02-17T23:18:13;25.90;;;16.42;;
27979;SDS011;15315;50.836;4.430;2023-02-17T23:28:16;24.88;;;15.73;;
27979;SDS011;15315;50.836;4.430;2023-02-17T23:38:19;19.70;;;13.77;;
27979;SDS011;15315;50.836;4.430;2023-02-17T23:48:20;18.90;;;12.52;;
27979;SDS011;15315;50.836;4.430;2023-02-17T23:58:21;18.17;;;13.18;;
